Barnegat Light, New Jersey
Current Conditions -  °F | °C
As of 11:55 PM on Friday 19 Dec 2014 (Local Time) from KMJX Reporting Station
Overcast Overcast  
Wind Chill: 30°   Ceiling: 2700
Heat Index: 30°   Visibility: 10mi
Dew Point: 21°   Wind: 3mph
Humidity: 69%   Direction: 330°NNW
Pressure: 30.2"   Gusts: NA
Location:  39.76°N, 74.11°W
Report Text: KMJX 200455Z AUTO 33003KT 10SM OVC027 M01/M06 A3020 RMK AO1
Loading
Personal Weather Stations






























Interactive Weather Map New forecast layout! Learn more

10-Day Weather Forecast

Advertisements
Track Severe Weather on mobile